Date,TemperatureHighF,TemperatureAvgF,TemperatureLowF,DewpointHighF,DewpointAvgF,DewpointLowF,HumidityHigh,HumidityAvg,HumidityLow,PressureMaxIn,PressureMinIn,WindSpeedMaxMPH,WindSpeedAvgMPH,GustSpeedMaxMPH,PrecipitationSumIn
2013-1-1,33,28,16,24,16,2,72,59,47,29.87,29.66,17,3,21,0.02
2013-1-2,26,17,8,13,6,-2,79,63,51,30.06,29.86,8,2,13,0.00
2013-1-3,22,12,2,12,-3,-10,67,51,27,30.08,29.94,8,3,17,0.00
2013-1-4,34,28,21,23,18,12,77,66,56,29.93,29.77,10,1,10,0.02
2013-1-5,38,32,24,22,19,15,72,59,43,30.21,29.79,10,2,17,0.03
2013-1-6,39,31,24,27,24,16,91,73,58,30.16,29.89,6,0,8,0.12
2013-1-7,35,31,22,27,20,11,82,64,40,30.34,29.91,10,1,14,0.01
2013-1-8,42,34,23,26,24,15,76,65,52,30.31,30.22,10,1,12,0.19
2013-1-9,42,36,25,34,27,22,87,70,50,30.34,29.96,8,1,13,0.13
2013-1-10,42,38,30,26,22,20,69,54,42,30.48,29.99,17,4,20,0.01
2013-1-11,35,32,27,33,25,20,96,77,61,30.48,30.15,4,0,6,0.11
2013-1-12,44,39,34,43,38,32,98,98,96,30.16,30.07,1,0,2,0.02
2013-1-13,49,46,42,49,46,42,99,98,96,30.08,29.92,7,0,7,0.00
2013-1-14,54,47,36,52,40,25,99,79,39,30.19,29.78,9,1,12,0.00
2013-1-15,38,34,30,26,24,22,77,66,55,30.27,30.16,6,1,10,0.00
2013-1-16,33,30,27,32,28,22,96,90,70,30.19,29.78,0,0,2,0.00
2013-1-17,38,32,26,31,24,11,96,74,51,30.04,29.78,12,1,12,0.25
2013-1-18,25,19,14,10,-1,-8,56,43,28,30.40,29.99,13,3,16,0.00
2013-1-19,43,33,17,30,19,4,75,56,42,30.32,29.81,7,2,14,0.05
2013-1-20,48,37,25,30,22,8,74,56,28,29.85,29.48,11,3,22,0.02
2013-1-21,25,21,16,18,9,3,90,62,43,30.03,29.74,13,1,16,0.00
2013-1-22,20,16,9,17,4,-7,91,60,32,30.03,29.70,12,2,19,0.00
2013-1-23,12,7,3,0,-9,-14,71,48,33,30.10,30.01,13,2,18,0.00
2013-1-24,17,7,-1,-9,-12,-13,58,42,27,30.19,30.04,18,4,21,0.00
2013-1-25,19,12,5,10,-8,-12,83,42,26,30.27,30.01,8,2,14,0.00
2013-1-26,20,13,7,10,0,-10,84,59,29,30.20,29.95,10,3,16,0.00
2013-1-27,27,17,8,1,-1,-4,69,46,26,30.42,30.20,12,2,18,0.00
2013-1-28,27,22,17,23,11,-1,94,66,38,30.40,29.96,4,0,7,0.00
2013-1-29,33,28,23,32,26,22,97,94,89,30.14,29.96,5,0,6,0.11
2013-1-30,57,48,33,57,47,32,99,97,93,30.08,29.36,11,2,18,0.21
2013-1-31,59,44,28,58,35,13,96,71,39,29.53,28.90,17,4,25,0.76
2013-2-1,29,25,18,12,6,2,59,45,32,30.02,29.52,12,3,20,0.00
2013-2-2,27,21,14,13,4,0,69,49,36,30.19,29.99,10,1,13,0.00
2013-2-3,25,22,16,20,17,13,90,81,71,30.00,29.68,2,0,5,0.00
2013-2-4,26,20,16,14,8,4,76,60,40,29.89,29.68,7,2,17,0.00
2013-2-5,26,22,17,20,12,7,89,67,51,29.97,29.88,6,1,7,0.00
2013-2-6,33,27,21,23,16,1,92,66,35,30.24,29.86,11,2,14,0.01
2013-2-7,28,22,14,6,2,-1,66,43,28,30.47,30.25,6,1,11,0.00
2013-2-8,23,20,16,20,15,7,91,81,51,30.42,29.60,17,2,18,0.00
2013-2-9,20,16,12,17,10,-1,91,78,57,30.18,29.58,16,8,25,0.00
2013-2-10,37,22,12,4,0,-5,57,38,20,30.36,30.19,12,3,16,0.01
2013-2-11,44,33,21,43,27,0,98,80,30,30.29,29.56,6,0,9,0.28
2013-2-12,40,36,32,38,27,23,97,68,55,29.83,29.57,14,2,16,0.00
2013-2-13,39,33,29,23,21,20,71,62,49,29.81,29.64,6,2,10,0.00
2013-2-14,43,34,28,23,20,18,77,56,37,29.92,29.66,5,1,10,0.00
2013-2-15,50,38,27,32,28,22,95,70,44,29.93,29.84,6,1,11,0.00
2013-2-16,36,32,26,30,25,14,95,77,52,29.90,29.67,11,1,12,0.06
2013-2-17,26,18,13,18,5,-3,89,57,37,29.66,29.39,20,8,32,0.01
2013-2-18,27,18,10,0,-3,-6,55,40,24,30.12,29.67,22,4,22,0.00
2013-2-19,44,34,21,40,22,-1,96,64,36,30.11,29.53,6,1,9,0.21
2013-2-20,38,28,23,37,17,7,95,62,40,29.74,29.49,14,3,18,0.01
2013-2-21,29,24,21,14,11,8,71,57,43,30.17,29.72,14,5,25,0.00
2013-2-22,37,29,20,21,18,15,81,63,44,30.34,30.18,11,2,15,0.00
2013-2-23,34,31,29,31,26,21,96,82,72,30.27,29.86,4,0,8,0.00
2013-2-24,34,32,31,33,32,30,97,97,96,29.85,29.66,6,0,8,0.09
2013-2-25,38,33,28,32,30,26,97,90,78,30.18,29.84,6,0,6,4.59
2013-2-26,40,35,32,32,28,26,92,78,57,30.28,30.09,6,1,7,0.34
2013-2-27,40,35,32,39,34,28,98,95,84,30.09,29.53,12,2,18,1.15
2013-2-28,44,37,33,38,34,31,98,90,73,29.58,29.48,3,0,8,0.00
2013-3-1,40,36,33,33,28,24,92,74,57,29.64,29.48,11,3,13,0.01
2013-3-2,38,34,30,26,25,23,77,70,61,29.63,29.58,8,3,13,0.00
2013-3-3,37,31,28,29,24,21,90,77,64,29.60,29.53,12,3,13,0.00
2013-3-4,37,30,24,23,20,17,77,67,52,29.71,29.56,12,4,18,0.00
2013-3-5,43,34,27,28,24,20,78,66,50,30.02,29.71,12,3,16,0.00
2013-3-6,36,33,31,34,31,28,96,92,77,30.04,29.98,11,2,14,0.09
2013-3-7,32,30,28,30,28,26,96,93,86,30.02,29.96,8,2,13,0.10
2013-3-8,38,32,28,36,28,19,97,87,47,30.12,29.90,13,3,14,1.39
2013-3-9,49,38,27,28,19,14,92,49,24,30.30,30.11,7,1,16,0.27
2013-3-10,44,35,26,31,28,24,94,75,53,30.37,30.23,4,0,8,0.01
2013-3-11,50,40,32,40,33,30,92,77,53,30.26,30.08,7,1,10,0.00
2013-3-12,53,48,42,51,46,40,98,94,80,30.08,29.65,12,2,12,0.51
2013-3-13,46,39,32,42,27,17,96,64,33,29.74,29.67,11,2,17,0.00
2013-3-14,34,28,19,23,12,4,65,52,40,29.80,29.67,16,4,20,0.00
2013-3-15,37,27,16,27,13,3,85,57,28,29.83,29.60,14,2,19,0.00
2013-3-16,35,30,24,26,13,6,84,51,30,29.82,29.63,7,1,9,0.00
2013-3-17,33,28,22,14,8,-1,70,44,23,30.25,29.83,16,3,18,0.00
2013-3-18,35,25,15,24,3,-3,88,42,20,30.40,30.17,5,1,7,0.00
2013-3-19,34,31,26,34,30,24,97,96,88,30.15,29.59,9,3,12,0.02
2013-3-20,34,28,22,27,19,16,95,70,49,29.76,29.65,8,2,20,0.22
2013-3-21,36,28,21,25,16,10,86,63,37,29.77,29.56,6,1,8,0.12
2013-3-22,37,30,22,22,16,12,67,57,41,29.70,29.56,11,3,14,0.13
2013-3-23,39,32,24,22,18,15,77,56,37,29.76,29.62,13,4,20,0.07
2013-3-24,44,36,28,22,20,17,69,54,39,29.78,29.68,13,2,13,0.03
2013-3-25,40,34,29,28,25,21,75,68,60,29.71,29.47,8,1,11,0.00
2013-3-26,44,37,33,27,23,17,72,57,35,29.74,29.49,7,2,12,0.00
2013-3-27,49,40,31,29,22,17,69,49,31,29.82,29.71,11,3,17,0.00
2013-3-28,47,40,34,33,30,26,93,67,45,29.98,29.82,7,2,10,0.01
2013-3-29,54,44,37,32,29,25,78,58,32,30.00,29.93,11,2,11,0.00
2013-3-30,53,43,35,31,21,12,75,46,21,30.05,29.96,10,2,16,0.00
2013-3-31,56,45,33,38,24,19,88,48,24,30.06,29.67,10,1,16,0.07
2013-4-1,58,43,31,41,33,10,97,72,37,29.73,29.46,13,3,22,0.26
2013-4-2,36,30,26,18,12,8,65,47,33,29.90,29.73,19,3,19,0.00
2013-4-3,41,33,27,19,11,5,67,42,25,30.12,29.89,14,4,20,0.00
2013-4-4,51,39,26,24,15,8,63,40,19,30.25,29.99,6,2,13,0.00
2013-4-5,57,44,35,28,23,16,74,46,20,29.99,29.61,11,3,18,0.00
2013-4-6,43,35,29,26,8,-1,66,34,16,30.29,29.83,14,4,16,0.00
2013-4-7,52,42,31,39,23,5,83,49,28,30.28,29.94,13,2,17,0.00
2013-4-8,63,51,42,41,37,30,93,62,29,30.02,29.90,8,1,13,0.00
2013-4-9,67,55,44,52,42,38,96,64,38,30.00,29.80,12,2,18,0.05
2013-4-10,63,52,45,52,46,40,96,79,56,29.94,29.79,3,0,10,0.31
2013-4-11,54,46,38,48,36,22,97,70,38,30.09,29.76,5,1,11,0.09
2013-4-12,38,36,34,36,34,31,97,93,76,30.09,29.75,11,2,14,0.56
2013-4-13,50,42,34,37,34,32,98,76,49,29.89,29.72,7,1,13,0.09
2013-4-14,48,43,37,37,30,23,89,64,37,30.07,29.87,11,2,14,0.00
2013-4-27,56,51,47,37,35,34,66,55,42,30.27,30.23,3,0,6,0.00
2013-4-28,69,55,40,38,32,24,81,46,24,30.28,30.15,8,1,9,0.00
2013-4-29,68,55,46,45,34,21,80,48,27,30.21,30.13,5,1,8,0.00
2013-4-30,69,57,45,36,25,12,67,33,14,30.30,30.19,7,0,7,0.00
2013-5-1,69,56,40,41,29,22,68,38,22,30.41,30.30,5,0,7,0.00
2013-5-2,77,60,47,42,37,32,70,47,20,30.42,30.26,7,1,14,0.00
2013-5-3,61,50,40,42,39,35,85,66,47,30.47,30.33,7,1,10,0.00
2013-5-4,64,51,40,44,36,24,92,60,24,30.33,30.23,7,1,11,0.00
2013-5-5,62,48,35,39,36,32,95,66,33,30.27,30.18,5,0,10,0.00
2013-5-6,72,55,38,48,40,33,96,63,25,30.22,30.07,3,0,6,0.00
2013-5-7,77,63,48,55,49,43,91,63,33,30.11,30.03,4,0,7,0.00
2013-5-8,68,60,52,62,57,50,97,89,72,30.13,29.98,5,0,7,0.68
2013-5-9,66,60,55,60,58,55,98,93,69,29.98,29.82,3,0,6,0.15
2013-5-10,78,66,54,58,53,47,97,69,35,29.90,29.84,5,0,7,0.01
2013-5-11,65,61,57,60,58,53,96,88,70,29.84,29.63,2,0,6,0.19
2013-5-12,67,58,46,60,49,30,97,73,42,29.76,29.51,7,1,12,0.06
2013-5-13,56,47,40,32,28,24,65,48,31,29.99,29.77,8,1,13,0.00
2013-5-14,55,47,40,34,29,24,70,50,31,30.00,29.94,7,1,12,0.00
2013-5-15,62,50,38,51,38,29,92,65,34,30.01,29.62,2,0,7,0.06
2013-5-16,78,66,52,51,39,30,87,41,20,29.73,29.59,13,1,13,0.00
2013-5-17,67,57,47,42,38,30,76,50,27,30.16,29.73,8,1,13,0.00
2013-5-18,72,59,44,46,39,31,82,52,24,30.25,30.16,3,0,8,0.00
2013-5-19,68,58,48,54,49,44,96,75,49,30.28,30.15,3,0,8,0.10
2013-5-20,80,67,55,63,59,54,97,78,53,30.15,29.87,3,0,8,0.04
2013-5-21,87,66,50,66,59,49,96,80,41,29.93,29.77,7,0,7,0.93
2013-5-22,76,61,50,66,57,48,98,88,68,30.00,29.79,3,0,12,0.31
2013-5-23,71,64,55,69,62,53,97,94,86,29.86,29.73,3,0,5,0.63
2013-5-24,70,61,46,66,58,45,97,90,71,29.77,29.58,5,1,11,1.07
2013-5-25,49,45,39,48,44,36,96,94,88,29.77,29.68,12,2,17,0.43
2013-5-26,55,46,38,40,37,34,91,71,49,30.06,29.68,11,3,20,0.01
2013-5-27,70,56,39,41,37,29,92,53,24,30.11,30.03,8,1,12,0.00
2013-5-28,74,60,45,53,42,34,82,54,27,30.18,30.09,2,0,4,0.00
2013-5-29,72,62,57,64,60,53,96,91,75,30.11,29.92,2,0,10,1.02
2013-5-30,85,74,61,68,65,60,97,75,51,30.02,29.96,5,0,10,0.00
2013-5-31,90,79,66,68,63,58,91,61,36,30.03,29.88,6,0,6,0.00
2013-6-1,90,80,69,68,63,58,77,57,35,29.91,29.80,4,0,9,0.00
2013-6-2,86,76,66,68,65,60,91,71,42,29.82,29.66,4,0,11,0.08
2013-6-3,76,68,57,66,61,42,96,81,55,29.79,29.71,5,0,6,0.67
2013-6-4,70,60,50,46,42,37,72,53,37,30.04,29.78,7,1,12,0.00
2013-6-5,73,62,49,50,45,39,85,57,30,30.14,30.04,2,0,7,0.00
2013-6-6,71,62,52,52,48,44,88,60,40,30.12,30.05,3,0,5,0.05
2013-6-7,57,55,52,56,53,51,98,95,89,30.04,29.78,4,0,8,1.98
2013-6-8,75,62,52,62,56,51,98,84,62,29.94,29.58,7,1,8,0.89
2013-6-9,78,67,56,56,54,51,91,66,43,30.11,29.95,5,0,8,0.00
2013-6-10,68,62,58,60,56,53,96,83,64,30.14,29.95,3,0,7,1.04
2013-6-11,61,58,56,59,57,55,98,96,91,29.94,29.52,3,0,7,1.22
2013-6-12,67,62,57,59,53,50,97,74,56,29.77,29.50,10,2,18,0.00
2013-6-13,62,55,52,56,52,49,97,90,74,29.77,29.62,4,0,10,1.38
2013-6-14,73,60,51,55,52,48,98,79,43,29.73,29.58,3,0,11,0.94
2013-6-15,76,66,56,52,46,40,74,51,27,29.89,29.74,5,1,10,0.00
2013-6-16,74,65,54,60,52,43,74,62,48,29.89,29.65,3,0,7,0.00
2013-6-17,82,68,59,62,58,55,96,73,42,29.84,29.72,2,0,7,0.62
2013-6-18,72,62,57,64,59,56,97,91,71,29.89,29.81,3,0,6,0.58
2013-6-19,73,63,54,56,50,41,96,66,32,30.08,29.85,2,0,6,0.14
2013-6-20,77,66,51,56,48,43,80,57,31,30.20,30.09,3,0,7,0.00
2013-6-21,81,70,57,63,57,51,84,65,44,30.18,30.14,5,0,8,0.00
2013-6-22,81,72,61,62,58,55,83,64,41,30.16,30.05,1,0,7,0.00
2013-6-23,87,76,65,70,64,55,80,67,55,30.10,29.94,5,0,7,0.00
2013-6-24,90,78,68,71,68,66,94,74,50,29.96,29.83,3,0,10,0.25
2013-6-25,88,77,66,70,66,62,94,70,50,29.88,29.67,5,0,10,0.00
2013-6-26,81,75,69,71,67,65,89,77,62,29.78,29.66,5,0,8,0.05
2013-6-27,72,68,64,68,66,63,97,93,87,29.78,29.69,1,0,4,0.05
2013-6-28,77,69,61,75,67,60,98,94,80,29.68,29.42,5,0,8,0.69
2013-6-29,81,74,69,69,67,65,95,82,59,29.64,29.43,2,0,5,0.05
2013-6-30,84,75,68,70,68,66,94,80,59,29.86,29.65,2,0,5,0.00
2013-7-1,77,73,71,74,71,68,95,91,80,30.01,29.86,0,0,2,0.15
2013-7-2,81,74,66,72,70,63,94,85,72,30.13,30.00,2,0,3,0.06
2013-7-3,84,74,64,72,68,62,95,82,61,30.15,30.08,2,0,8,0.04
2013-7-4,89,80,73,73,71,70,92,75,57,30.15,30.04,5,0,7,0.01
2013-7-5,91,82,74,74,71,69,88,71,52,30.10,29.98,4,0,7,0.00
2013-7-6,88,81,73,72,70,67,84,72,51,30.02,29.92,3,0,8,0.00
2013-7-7,90,78,70,74,69,64,90,75,55,29.97,29.85,2,0,6,0.00
2013-7-8,86,77,69,72,70,66,95,79,54,29.99,29.84,5,0,6,0.00
2013-7-9,73,69,66,68,66,64,96,90,80,30.04,29.97,1,0,3,0.02
2013-7-10,83,73,66,73,70,64,97,89,69,30.01,29.73,2,0,6,0.03
2013-7-11,82,75,70,73,70,64,96,84,65,29.87,29.71,3,0,6,0.00
2013-7-12,75,70,66,63,59,55,79,68,57,30.14,29.87,7,0,10,0.00
2013-7-13,75,68,62,71,64,56,96,88,71,30.26,30.14,4,0,5,0.01
2013-7-14,87,79,72,74,71,68,97,79,54,30.24,30.14,6,0,7,0.00
2013-7-15,90,80,72,72,69,66,92,70,48,30.15,30.04,6,0,6,0.00
2013-7-16,90,81,71,70,66,63,84,63,42,30.10,30.05,2,0,11,0.00
2013-7-17,91,82,71,73,69,63,86,67,43,30.12,29.94,3,0,4,0.00
2013-7-18,92,83,76,73,71,68,84,67,46,29.95,29.86,5,0,7,0.00
2013-7-19,92,84,74,76,72,70,89,70,48,29.89,29.66,3,0,11,0.00
2013-7-20,88,81,72,74,71,60,85,71,56,29.75,29.60,2,0,6,0.00
2013-7-21,83,75,67,67,63,59,87,67,46,29.92,29.75,3,0,5,0.00
2013-7-22,81,72,65,68,66,63,95,82,58,29.95,29.83,3,0,6,0.00
2013-7-23,82,72,68,77,70,66,97,94,76,29.82,29.48,3,0,8,0.40
2013-7-24,80,74,65,71,65,54,97,75,52,29.89,29.51,8,0,13,0.01
2013-7-25,63,58,56,57,53,47,95,82,68,30.05,29.89,3,0,6,0.01
2013-7-26,71,64,59,65,60,57,97,88,70,30.02,29.90,5,0,14,0.02
2013-7-27,81,70,60,67,61,57,96,74,45,30.00,29.93,1,0,5,0.01
2013-7-28,82,71,63,69,64,61,95,81,56,29.95,29.89,1,0,3,0.01
2013-7-29,82,73,66,68,65,59,95,77,52,29.98,29.90,2,0,5,0.01
2013-7-30,78,70,60,59,56,53,80,62,45,30.04,29.99,4,0,8,0.00
2013-7-31,80,70,60,61,57,54,87,65,41,30.08,29.98,2,0,7,0.02
2013-8-1,77,68,61,64,61,58,95,82,60,29.99,29.81,1,0,3,0.00
2013-8-2,80,70,64,68,62,57,97,78,46,29.82,29.74,3,0,7,0.00
2013-8-3,76,68,62,63,61,57,95,79,56,29.80,29.73,8,0,8,0.02
2013-8-4,77,66,58,58,55,52,84,68,44,29.84,29.73,7,0,8,0.00
2013-8-5,72,63,53,53,47,40,89,61,32,30.00,29.84,6,1,13,0.02
2013-8-6,77,65,52,56,50,45,80,59,38,30.08,30.00,1,0,7,0.00
2013-8-7,77,68,57,59,55,46,91,67,36,30.12,30.05,2,0,3,0.00
2013-8-8,79,70,64,70,66,58,96,86,69,30.05,29.95,2,0,8,0.00
2013-8-9,75,72,71,74,70,67,97,94,88,29.96,29.69,1,0,5,0.01
2013-8-10,79,72,63,71,58,49,97,66,36,29.95,29.74,11,1,14,0.01
2013-8-11,77,66,54,57,53,49,88,65,43,30.03,29.95,3,0,10,0.00
2013-8-12,79,69,59,62,57,53,91,68,41,29.98,29.86,3,0,7,0.03
2013-8-13,73,68,65,66,62,58,91,84,70,29.86,29.63,0,0,1,0.00
2013-8-14,70,63,57,63,52,47,92,68,49,29.91,29.61,11,1,13,0.00
2013-8-15,74,63,53,53,51,48,87,67,43,30.06,29.92,6,0,11,0.02
2013-8-16,76,65,54,57,53,49,83,66,41,30.14,30.05,5,0,7,0.00
2013-8-17,78,68,57,60,56,54,88,68,44,30.22,30.14,2,0,4,0.01
2013-8-18,77,68,60,62,58,54,87,72,48,30.21,30.03,0,0,2,0.00
2013-8-19,77,69,61,62,59,56,89,72,54,30.03,29.91,5,0,8,0.00
2013-8-20,82,72,62,64,60,57,89,67,44,30.04,29.92,6,0,7,0.00
2013-8-21,84,74,65,65,61,58,82,66,44,30.09,29.97,2,0,6,0.02
2013-8-22,82,74,65,69,65,60,91,74,58,29.97,29.76,5,0,6,0.00
2013-8-23,78,70,61,68,57,49,90,65,42,30.06,29.76,6,1,10,0.00
2013-8-24,74,64,55,51,47,44,73,56,35,30.28,30.07,5,0,6,0.00
2013-8-25,79,68,57,56,52,45,85,59,31,30.31,30.12,1,0,7,0.00
2013-8-26,76,70,64,66,60,54,91,71,59,30.12,29.82,2,0,7,0.04
2013-8-27,82,73,68,70,67,63,97,82,56,29.83,29.76,3,0,8,0.13
2013-8-28,85,74,64,70,64,61,93,75,49,29.89,29.78,3,0,7,0.00
2013-8-29,67,64,61,65,62,58,97,94,90,30.01,29.85,3,0,6,0.00
2013-8-30,80,69,58,67,63,57,96,83,60,29.98,29.77,3,0,7,0.02
2013-8-31,78,74,70,71,69,66,92,87,80,29.77,29.72,1,0,3,0.00
2013-9-1,76,72,68,74,70,66,96,95,88,29.81,29.73,1,0,6,0.00
2013-9-2,77,74,72,76,72,71,97,96,92,29.79,29.64,0,0,2,0.02
2013-9-3,79,71,62,72,66,55,98,85,68,29.75,29.63,3,0,7,0.02
2013-9-4,76,66,58,58,56,54,92,71,47,29.86,29.75,5,0,8,0.01
2013-9-5,68,62,51,59,51,39,87,68,38,30.09,29.80,7,0,8,0.00
2013-9-6,67,56,45,46,41,35,78,59,34,30.19,30.04,2,0,5,0.01
2013-9-7,76,64,51,56,49,42,76,59,38,30.04,29.80,4,0,8,0.00
2013-9-8,72,62,50,60,50,39,87,66,39,30.03,29.69,6,1,16,0.01
2013-9-9,66,56,43,50,43,37,84,63,37,30.18,30.03,5,0,7,0.00
2013-9-10,74,65,56,69,62,50,96,90,82,30.09,29.97,2,0,7,0.01
2013-9-11,91,79,70,75,71,66,96,78,52,30.00,29.88,4,0,12,0.00
2013-9-12,83,75,67,72,68,65,96,81,64,29.90,29.60,3,0,7,0.02
2013-9-13,76,67,57,67,62,52,98,87,61,29.70,29.51,6,0,10,0.01
2013-9-14,65,57,52,52,50,48,90,77,59,30.00,29.70,8,1,14,0.00
2013-9-15,68,57,47,51,48,43,94,72,43,30.11,30.00,2,0,7,0.00
2013-9-16,66,57,44,53,48,36,86,72,57,30.19,29.95,5,0,8,0.01
2013-9-17,59,49,40,44,37,33,86,66,45,30.37,30.20,3,0,6,0.00
2013-9-18,70,56,45,49,44,40,88,65,34,30.28,30.08,6,0,6,0.01
2013-9-19,77,63,52,54,49,45,79,62,36,30.08,29.99,6,0,7,0.00
2013-9-20,78,65,53,56,52,49,89,67,37,30.02,29.93,1,0,3,0.00
2013-9-21,71,63,55,64,58,54,97,84,68,29.95,29.65,3,0,7,0.00
2013-9-22,68,61,49,66,54,43,96,79,55,29.78,29.53,6,1,11,0.01
2013-9-23,60,50,43,43,40,37,87,69,50,29.96,29.78,11,1,12,0.00
2013-9-24,65,51,41,43,40,37,88,67,39,29.95,29.77,7,1,12,0.01
2013-9-25,67,56,47,52,46,42,82,70,52,29.92,29.81,3,0,8,0.01
2013-9-26,64,56,52,50,48,44,89,74,52,30.06,29.92,3,0,5,0.00
2013-9-27,62,56,51,53,50,48,94,80,63,30.21,30.06,3,0,7,0.00
2013-9-28,70,58,50,54,51,48,95,77,51,30.28,30.20,2,0,6,0.00
2013-9-29,66,54,45,54,46,40,97,77,41,30.21,30.07,3,0,3,0.00
2013-9-30,66,54,43,51,46,42,97,78,50,30.07,29.92,2,0,5,0.00
2013-10-1,75,62,51,57,52,47,91,72,42,29.91,29.80,6,0,10,0.00
2013-10-2,76,66,57,60,56,52,86,70,53,29.89,29.79,7,1,11,0.00
2013-10-3,73,63,55,54,49,44,82,63,35,30.03,29.90,7,0,7,0.00
2013-10-4,62,58,54,57,52,45,96,81,63,30.03,29.98,1,0,1,0.20
2013-10-5,67,61,58,59,57,55,96,86,70,30.06,29.99,2,0,3,0.01
2013-10-6,59,55,52,56,54,52,98,96,88,30.16,30.05,0,0,1,0.49
2013-10-7,75,62,56,71,60,53,99,94,74,30.07,29.72,0,0,1,0.34
2013-10-8,62,54,44,53,43,38,87,66,43,30.31,29.83,6,1,13,0.01
2013-10-9,59,49,40,44,41,36,94,75,55,30.42,30.31,7,0,7,0.00
2013-10-10,57,50,42,50,46,40,97,88,77,30.31,30.13,0,0,3,0.00
2013-10-11,67,56,47,54,47,40,95,74,49,30.12,30.04,2,0,6,0.00
2013-10-12,56,52,48,54,50,44,97,92,82,30.33,30.09,4,0,10,0.00
2013-10-13,55,51,44,50,47,43,96,88,76,30.38,30.31,2,0,6,0.02
2013-10-14,62,46,39,49,42,38,98,86,46,30.35,30.25,2,0,3,0.00
2013-10-15,65,58,50,52,49,47,92,74,55,30.16,30.11,2,0,3,0.00
2013-10-16,57,53,49,52,50,48,98,90,72,30.11,29.86,3,0,5,0.00
2013-10-17,70,61,52,59,55,51,97,84,56,29.85,29.65,2,0,7,0.02
2013-10-18,63,58,47,61,49,38,97,74,51,29.85,29.53,12,1,17,0.05
2013-10-19,64,53,43,46,40,38,87,64,39,29.91,29.68,4,0,6,0.00
2013-10-20,58,51,42,51,38,30,95,65,36,29.96,29.62,8,1,17,0.03
2013-10-21,64,52,41,42,37,34,79,60,35,30.06,29.93,4,0,7,0.00
2013-10-22,62,52,45,50,44,35,96,76,58,29.92,29.66,7,1,9,0.00
2013-10-23,48,43,36,35,32,30,83,67,51,29.73,29.53,3,0,5,0.00
2013-10-24,50,43,35,34,28,21,83,58,34,29.82,29.59,10,1,13,0.00
2013-10-25,47,39,33,33,28,25,90,67,43,30.10,29.82,12,1,12,0.00
2013-10-26,52,42,32,34,29,23,90,62,34,30.10,29.81,6,1,10,0.00
2013-10-27,51,45,38,35,32,28,74,60,44,30.00,29.73,8,1,12,0.00
2013-10-28,54,43,34,34,31,24,83,62,43,30.28,30.00,6,0,12,0.00
2013-10-29,46,36,28,25,20,14,74,54,29,30.39,30.29,5,0,6,0.00
2013-10-30,51,41,35,39,33,22,93,72,52,30.31,30.14,4,0,8,0.01
2013-10-31,59,50,40,58,49,38,98,96,84,30.18,29.74,2,0,7,0.22
2013-11-1,66,61,55,61,56,49,96,83,68,29.73,29.39,10,2,14,0.23
2013-11-2,64,53,44,49,42,38,93,69,40,29.66,29.53,6,0,10,0.01
2013-11-3,47,39,29,44,25,11,92,61,27,30.35,29.66,12,2,12,0.02
2013-11-4,39,31,26,20,15,12,75,51,32,30.65,30.36,5,1,8,0.00
2013-11-5,49,37,26,34,26,20,81,66,43,30.66,30.45,3,0,4,0.00
2013-11-6,59,49,40,47,40,34,86,74,51,30.45,29.98,6,1,8,0.00
2013-11-7,62,51,38,55,47,30,92,85,74,29.98,29.63,12,1,13,0.13
2013-11-8,43,36,28,33,25,20,83,64,47,30.04,29.75,7,1,16,0.00
2013-11-9,42,35,27,28,23,20,80,63,42,30.16,29.97,8,1,13,0.00
2013-11-10,52,43,38,39,34,28,90,71,53,29.96,29.69,8,1,12,0.05
2013-11-11,48,42,36,29,26,23,66,52,37,30.04,29.81,12,2,14,0.00
2013-11-12,46,32,24,36,23,13,93,70,51,30.13,29.81,8,2,18,0.08
2013-11-13,32,26,21,16,12,7,72,56,35,30.25,30.10,12,2,12,0.00
2013-11-14,49,38,28,22,18,14,60,44,33,30.10,29.99,8,1,13,0.00
2013-11-15,59,47,35,27,16,11,50,31,17,30.13,30.05,3,0,10,0.00
2013-11-16,58,48,41,37,26,19,84,44,26,30.26,30.11,3,0,8,0.00
2013-11-17,50,44,39,44,40,36,97,89,72,30.24,29.81,4,0,4,0.04
2013-11-18,61,56,45,60,44,30,98,68,43,29.80,29.47,10,1,12,0.33
2013-11-19,45,36,28,30,21,15,62,53,43,30.23,29.60,16,4,20,0.00
2013-11-20,39,30,24,15,12,5,65,48,24,30.57,30.24,11,2,16,0.00
2013-11-21,44,35,24,33,19,9,74,53,34,30.58,30.32,5,0,6,0.00
2013-11-22,47,44,40,46,42,33,97,91,75,30.31,29.76,1,0,7,0.09
2013-11-23,47,37,25,45,25,16,93,62,41,29.87,29.72,17,3,19,0.01
2013-11-24,25,20,16,18,3,-7,84,50,25,30.14,29.75,17,5,26,0.00
2013-11-25,30,22,14,14,3,-8,56,44,25,30.32,30.15,11,2,16,0.00
2013-11-26,37,32,26,31,21,11,95,65,47,30.28,29.99,2,0,6,0.15
2013-11-27,62,46,32,61,45,30,98,95,85,29.98,29.18,16,3,19,1.98
2013-11-28,35,27,20,30,13,2,83,57,33,30.38,29.39,12,3,21,0.00
2013-11-29,30,24,16,14,10,4,75,55,39,30.69,30.38,13,2,13,0.00
2013-11-30,29,22,12,20,10,4,73,59,46,30.74,30.37,6,0,7,0.00
2013-12-1,37,32,28,36,30,20,98,91,73,30.36,29.96,2,0,4,0.07
2013-12-2,40,38,36,40,37,36,99,99,98,29.96,29.86,1,0,3,0.00
2013-12-3,47,38,33,41,34,30,99,86,58,29.90,29.79,10,1,12,0.01
2013-12-4,42,34,31,30,27,25,90,75,55,30.14,29.90,7,1,11,0.00
2013-12-5,56,40,34,55,37,27,99,90,67,30.13,29.86,5,0,11,0.02
2013-12-6,56,47,34,56,45,32,99,93,73,30.08,29.80,5,1,11,0.19
2013-12-7,35,32,26,32,27,16,96,83,61,30.40,30.02,10,1,10,0.07
2013-12-8,27,25,19,17,15,13,80,66,55,30.54,30.40,6,0,7,0.00
2013-12-9,35,29,23,34,27,15,98,92,67,30.44,29.84,5,0,5,0.00
2013-12-10,34,30,21,34,26,15,98,87,71,29.93,29.73,6,0,9,1.18
2013-12-11,28,23,19,18,16,13,82,74,61,30.15,29.94,11,1,11,0.01
2013-12-12,21,17,13,16,6,-2,85,63,39,30.22,30.01,10,2,12,0.00
2013-12-13,26,19,14,18,10,4,80,66,54,30.32,29.94,8,1,11,0.00
2013-12-14,14,10,8,11,2,-7,88,70,43,30.54,30.12,5,0,6,0.00
2013-12-15,26,22,14,23,18,11,92,87,74,30.09,29.41,7,2,16,0.00
2013-12-16,24,20,11,19,9,4,86,62,45,30.14,29.68,12,2,16,0.00
2013-12-17,17,9,2,15,5,-2,90,83,75,30.21,29.92,4,0,8,0.00
2013-12-18,30,24,17,20,17,14,92,77,60,30.03,29.84,10,2,18,0.00
2013-12-19,39,32,21,25,21,17,84,65,49,30.05,29.91,10,1,16,0.10
2013-12-20,50,41,33,33,29,25,75,63,48,30.05,29.85,6,1,9,0.68
2013-12-21,53,50,41,47,43,37,91,77,63,29.90,29.80,3,1,8,0.00
2013-12-22,64,47,34,59,45,34,98,94,73,29.93,29.71,11,1,16,0.02
2013-12-23,42,35,33,41,35,32,99,98,95,30.03,29.91,10,0,10,0.45
2013-12-24,38,30,23,36,20,10,94,67,50,30.15,30.00,9,3,13,0.00
2013-12-25,22,16,11,8,2,-1,65,53,41,30.49,30.15,12,2,16,0.00
2013-12-26,30,23,15,27,17,4,90,78,59,30.44,30.04,5,0,7,0.00
2013-12-27,30,27,22,21,18,16,82,70,57,30.22,30.14,8,0,8,0.01
2013-12-28,43,34,27,26,24,20,78,65,48,30.15,29.94,6,1,8,0.04
2013-12-29,43,38,34,36,31,26,97,76,57,29.97,29.38,7,1,12,1.08
2013-12-30,39,30,15,35,21,7,96,71,39,30.10,29.48,13,2,17,0.02
2013-12-31,22,17,10,14,7,3,80,67,47,30.12,29.97,7,1,13,0.00
2014-1-1,24,19,14,10,5,2,70,56,43,30.32,30.13,6,1,10,0.00
2014-1-2,18,10,-1,14,6,-5,88,83,73,30.29,29.80,7,1,11,0.00